EDDSEDSB

Guest
Details From EDDS - Stuttgart
To EDSB - Karlsruhe Baden Baden
Flight Number -
Tags generated
Created
Modified
Stats Distance 46 nm / 85 km
Max Altitude 2,300 ft / 701 m
Waypoints 3
Social Downloads 13
Likes 0
Share VATSIM

Download

Looking for another format? Having issues loading an existing format? Contact us
Advertisement - Login to hide

Notes

Basic altitude profile: - Ascent Rate: 2500ft/min - Ascent Speed: 250kts - Cruise Altitude: 35000ft - Cruise Speed: 420kts - Descent Rate: 1500ft/min - Descent Speed: 250kts Options: - Use NATs: yes - Use PACOTS: yes - Use low airways: yes - Use high airways: yes

Route

EDDS PABLA EDSB

ID Type Via Altitude Latitude Longitude Leg Dist Tot Dist Heading (true) Name
O EDDS APT - 0 ft / 0 m 48.68988˚ 9.22196˚ - 0 nm - Stuttgart
PABLA FIX - 2,300 ft / 701 m 48.78861˚ 8.35194˚ 34 nm 34 nm 280° / 279° -
O EDSB APT - 0 ft / 0 m 48.77926˚ 8.08064˚ 10 nm 45 nm 267° / 267° Karlsruhe Baden Baden

Altitude Profile

Advertisement - Login to hide

EDDS

Details ICAO EDDS (STR)
Name Stuttgart
Region Germany - Civil
Timezone Europe/Berlin (UTC+1.0)
Stats Elevation 1,273 ft / 388 m (AMSL)
Location 48.689876° 9.221962°
Runways 1
Magnetic Variation 2.522° E

METAR

EDDS 112320Z 20010KT 9999 FEW043 BKN110 07/02 Q0989

Decode

TAF

TAF TAF EDDS 111700Z 1118/1218 VRB03KT 9999 BKN030 BECMG 1118/1122 24010KT TEMPO 1118/1124 4000 RADZ BKN008 PROB30 TEMPO 1208/1215 3000 SHRASN SCT020TCU

Decode

Departure Runways

ID Width Length Bearing (true) Bearing (mag) Surface Threshold Offset Overrun Length
07 148 ft / 45 m 10,950 ft / 3,337 m 73.96° 71.44° Concrete 981 ft / 299 m 157 ft / 48 m
25 148 ft / 45 m 10,950 ft / 3,337 m 253.99° 251.47° Concrete 0 ft / 0 m 157 ft / 48 m

EDSB

Details ICAO EDSB (FKB)
Name Karlsruhe Baden Baden
Region Germany - Civil
Timezone Europe/Berlin (UTC+1.0)
Stats Elevation 408 ft / 124 m (AMSL)
Location 48.779257° 8.080642°
Runways 1
Magnetic Variation 2.222° E

METAR

EDSB 112320Z AUTO 24012KT 210V270 9000 // SCT024/// BKN030/// OVC042/// 07/04 Q0990

Decode

TAF

TAF EDSB 111700Z 1118/1218 20015KT 9999 BKN030 TEMPO 1118/1124 4500 RADZ BKN012 BECMG 1118/1121 21015G25KT PROB30 TEMPO 1200/1215 22020G35KT 4000 SHRA BKN025TCU BECMG 1207/1210 22010KT

Decode

Destination Runways

ID Width Length Bearing (true) Bearing (mag) Surface Threshold Offset Overrun Length
03 148 ft / 45 m 9,799 ft / 2,987 m 31.69° 29.47° Asphalt 830 ft / 253 m 115 ft / 35 m
21 148 ft / 45 m 9,799 ft / 2,987 m 211.70° 209.48° Asphalt 830 ft / 253 m 115 ft / 35 m

Approach Navaids

Runway Type Ident Frequency Range Bearing (true) Bearing (mag) Slope Elevation
03 Localiser IKBE 109.95 MHz 18 nm / 33 km 31.45° 29.23° - 408 ft / 124 m (AMSL)
03 Glidescope IKBE 109.95 MHz 10 nm / 19 km 31.70° 29.47° 3.00° 456 ft / 139 m (AMSL)
21 Localiser IKBW 108.75 MHz 18 nm / 33 km 211.94° 209.72° - 405 ft / 123 m (AMSL)
21 Glidescope IKBW 108.75 MHz 10 nm / 19 km 211.70° 209.47° 3.00° 408 ft / 124 m (AMSL)

Popular Alternatives